METAR Data
IDs: Format: Raw Decoded Include TAF

Data at: 1827 UTC 06 Jul 2020

State: NV
K05U 061815Z AUTO 00000KT 10SM CLR 31/M09 A3012 RMK A01
No TAF found for K05U

No TAF found for K9BB
No TAF found for KAWH
No TAF found for KB23
No TAF found for KBJN
KBVU 061815Z AUTO 18008KT 10SM CLR 39/M04 A2987 RMK AO2
No TAF found for KBVU

KCXP 061815Z AUTO 00000KT 10SM CLR 28/M11 A3006 RMK AO2

KCXP 061722Z 0618/0718 VRB03KT P6SM SKC
  FM061900 23011G20KT P6SM SKC
  FM062300 26018G30KT P6SM SKC
  FM070500 VRB04KT P6SM SKC


KDRA 061753Z AUTO 22013KT 10SM CLR 36/M06 A2994 RMK AO2 SLP082 T03561061 10356 20194 58001
No TAF found for KDRA

KEKO 061756Z AUTO VRB03KT 10SM CLR 28/M06 A3006 RMK AO2 SLP122 T02831056 10283 20078 58013

KEKO 061720Z 0618/0718 VRB04KT P6SM SKC
  FM062000 25013G23KT P6SM SKC
  FM070300 27006KT P6SM SKC
  FM071700 25013G23KT P6SM SKC


KELY 061753Z AUTO 31005KT 10SM CLR 30/M06 A3012 RMK AO2 SLP092 T03001061 10300 20056 58013

KELY 061720Z 0618/0718 18008KT P6SM SKC
  FM061900 20012G22KT P6SM SKC
  FM070300 18013KT P6SM SKC
  FM071700 23012G23KT P6SM SKC


KHND 061756Z 05006KT 10SM CLR 37/00 A2991 RMK AO2 SLP106 T03720000 10372 20267 58000

KHND 061721Z 0618/0718 VRB06KT P6SM SKC
  FM062000 16010G19KT P6SM SKC
  FM062300 19014G23KT P6SM SKC
  FM070300 21012KT P6SM SKC
  FM071400 20016G25KT P6SM SKC


KINS 061758Z AUTO 34003KT 10SM FEW220 35/M08 A2992 RMK AO2 SLP075 T03511079 10352 20197 58000 $
No TAF found for KINS

No TAF found for KL63
KLAS 061756Z VRB05KT 10SM CLR 37/00 A2988 RMK AO2 SLP083 T03720000 10372 20278 50000

KLAS 061721Z 0618/0724 09008KT P6SM SKC
  FM062000 15010G17KT P6SM SKC
  FM070000 20014G23KT P6SM SKC
  FM070400 22010KT P6SM SKC
  FM071400 19015G24KT P6SM SKC


KLOL 061753Z AUTO VRB06G15KT 10SM CLR 29/M04 A3001 RMK AO2 SLP116 T02891039 10289 20089 58007
No TAF found for KLOL

KLSV 061758Z AUTO 00000KT 10SM CLR 37/M03 A2984 RMK AO2 SLP075 T03711027 10371 20235 58003 $

TAF KLSV 061600Z 0616/0722 12006KT 9999 SKC QNH2985INS
  BECMG 0618/0619 14012G18KT 9999 SKC QNH2978INS
  TEMPO 0622/0702 15015G25KT 520009
  BECMG 0703/0704 16006KT 9999 SKC QNH2970INS
  BECMG 0718/0719 15015G25KT 9999 SKC 520009 QNH2973INS TX41/0623Z TN24/0713Z


KMEV 061815Z AUTO 21005KT A3006 RMK AO2

KMEV 061722Z 0618/0718 12006KT P6SM SKC
  FM061900 23014G24KT P6SM SKC
  FM062300 28020G32KT P6SM SKC
  FM070500 VRB04KT P6SM SKC


KNFL 061756Z 00000KT 10SM CLR 28/M03 A3001 RMK AO2 SLP133 T02781028 10278 20100 58008

TAF KNFL 0615/0715 VRB05KT 9999 SKC QNH2998INS
  FM062100 29009KT 9999 SKC QNH2988INS
  FM070000 27020G30KT 9999 SKC 520009 QNH2984INS
  FM070400 24009KT 9999 SKC 500000 QNH2988INS T36/0623Z T12/0713Z FS30051


KP68 061753Z AUTO 00000KT 28/M06 A3010 RMK AO1 SLP106 T02831061 10289 20078 58011
No TAF found for KP68

KRNO 061755Z 00000KT 10SM CLR 27/M03 A3004 RMK AO2 SLP114 T02721028 10272 20128 58012

KRNO 061722Z 0618/0718 VRB03KT P6SM SKC
  FM062000 22013G23KT P6SM SKC
  FM070000 27020G32KT P6SM SKC
  FM070600 30008KT P6SM SKC


KRTS 061815Z AUTO VRB04G10KT 10SM CLR 26/M08 A3008 RMK AO2
No TAF found for KRTS

KTMT 061815Z AUTO 26005KT 10SM CLR 28/M14 A3011 RMK AO2 T02841140
No TAF found for KTMT

KTPH 061756Z AUTO 19006KT 10SM CLR 30/M10 A3010 RMK AO2 SLP095 T03001100 10300 20133 58004

KTPH 061720Z 0618/0718 35008KT P6SM SKC
  FM061900 22012G20KT P6SM SKC
  FM070400 23012KT P6SM FEW130
  FM070800 35008KT P6SM SKC
  FM071700 29010KT P6SM SKC


No TAF found for KU31
KVGT 061753Z 00000KT 10SM CLR 38/M02 A2987 RMK AO2 SLP096 T03781017 10378 20272 58001

KVGT 061721Z 0618/0718 13008KT P6SM SKC
  FM062000 16011G19KT P6SM SKC
  FM070000 21012G22KT P6SM SKC
  FM070300 24009KT P6SM SKC
  FM071600 20015G24KT P6SM SKC


KWMC 061756Z AUTO VRB03KT 10SM CLR 29/M03 A3001 RMK AO2 SLP113 T02941033 10300 20094 58009

KWMC 061720Z 0618/0718 VRB03KT P6SM SKC
  FM062000 25015G25KT P6SM SKC
  FM070300 26009KT P6SM SKC
  FM071700 25011G17KT P6SM SKC